This is the latest recevied weather packets stored in our database for station/object VK5TRM-14. If no packets are shown the sender has not sent any weather packets the latest 10 day(s).
| Time | Temp. | Humidity | Pressure | Rain* | Wind** | Luminosity | Snow |
|---|---|---|---|---|---|---|---|
| 1777906806 | 10.56° C | 91% | 1020.1 hPa | 0 mm | - | - | - |
| 1777905906 | 10.56° C | 91% | 1020.1 hPa | 0 mm | - | - | - |
| 1777905006 | 10.56° C | 89% | 1020 hPa | 0 mm | - | - | - |
| 1777904105 | 10.56° C | 89% | 1020 hPa | 0 mm | - | - | - |
| 1777903206 | 10.56° C | 88% | 1019.9 hPa | 0 mm | - | - | - |
| 1777902305 | 10.56° C | 88% | 1019.9 hPa | 0 mm | - | - | - |
| 1777901406 | 10.56° C | 89% | 1019.9 hPa | 0 mm | - | - | - |
| 1777900506 | 10.56° C | 89% | 1019.9 hPa | 0 mm | - | - | - |
| 1777899605 | 11.11° C | 85% | 1020 hPa | 0 mm | - | - | - |
| 1777898705 | 11.11° C | 85% | 1020 hPa | 0 mm | - | - | - |
| 1777897806 | 11.67° C | 83% | 1019.8 hPa | 0 mm | - | - | - |
| 1777896905 | 11.67° C | 83% | 1019.8 hPa | 0 mm | - | - | - |
| 1777896005 | 12.78° C | 81% | 1019.4 hPa | 0 mm | - | - | - |
| 1777895105 | 12.78° C | 81% | 1019.4 hPa | 0 mm | - | - | - |
| 1777894205 | 13.33° C | 77% | 1019 hPa | 0 mm | - | - | - |
| 1777893305 | 13.33° C | 77% | 1019 hPa | 0 mm | - | - | - |
| 1777892406 | 14.44° C | 72% | 1018.6 hPa | 0 mm | - | - | - |
| 1777891505 | 14.44° C | 72% | 1018.6 hPa | 0 mm | - | - | - |
| 1777890605 | 14.44° C | 68% | 1018.1 hPa | 0 mm | - | - | - |
| 1777889705 | 14.44° C | 68% | 1018.1 hPa | 0 mm | - | - | - |
| 1777888805 | 13.89° C | 76% | 1017.7 hPa | 0 mm | - | - | - |
| 1777887905 | 13.89° C | 76% | 1017.7 hPa | 0 mm | - | - | - |
| 1777887005 | 15° C | 72% | 1017 hPa | 0 mm | - | - | - |
| 1777886105 | 15° C | 72% | 1017 hPa | 0 mm | - | - | - |
| 1777885207 | 16.67° C | 65% | 1016.5 hPa | 0 mm | - | - | - |
* Rain since midnight (hover to see other rain measurements)
** Current wind speed in m/s (hover to see current wind gust speed)